Latest Weather Observations for Cobar

IDN60801

Issued at 7:35 pm EDT Tuesday 21 October 2014 (issued every 30 minutes, with the page automatically refreshed every 10 minutes)

About weather observations | Map of weather stations | Latest weather observations for NSW | Other Formats
Station Details ID: 048027 Name: COBAR MO Lat: -31.48 Lon: 145.83 Height: 260.0 m
Data from the previous 72 hours. | See also: Recent months at Cobar
Date/Time
EDT
Temp
°C
App
Temp
°C
Dew
Point
Rel
Hum
%
Delta-T
°C
Wind Press
QNH
hPa
Press
MSL
hPa
Rain
since 9 am
mm
Dir
 
Spd
km/h
Gust
km/h
Spd
kts
Gust
kts
21/07:30pm 31.0 27.9 3.7 17 14.1 E 9 13 5 7 1020.1 - 0.0
21/07:00pm 32.5 28.9 0.6 13 15.8 ESE 9 15 5 8 1019.8 1019.1 0.0
21/06:30pm 33.6 29.5 0.0 12 16.6 WSW 11 17 6 9 1019.7 - 0.0
21/06:00pm 33.7 29.6 -0.2 11 16.7 SSW 11 17 6 9 1019.7 1019.0 0.0
21/05:30pm 33.9 30.1 -0.5 11 16.9 SE 9 13 5 7 1019.7 - 0.0
21/05:00pm 33.9 29.4 -0.1 11 16.8 S 13 20 7 11 1019.7 - 0.0
21/04:30pm 34.3 30.2 0.1 11 17.0 SSW 11 20 6 11 1019.9 - 0.0
21/04:00pm 34.1 31.4 3.7 15 16.0 NE 7 13 4 7 1020.1 1019.4 0.0
21/03:30pm 34.4 30.7 2.5 13 16.5 W 11 19 6 10 1020.6 - 0.0
21/03:00pm 33.1 29.1 2.9 15 15.6 N 13 20 7 11 1021.1 1020.4 0.0
21/02:30pm 32.9 28.7 3.9 16 15.2 N 15 24 8 13 1021.7 - 0.0
21/02:00pm 31.9 29.8 6.5 20 13.8 SE 7 19 4 10 1022.2 - 0.0
21/01:30pm 31.8 28.5 6.3 20 13.9 N 13 26 7 14 1022.7 - 0.0
21/01:00pm 30.7 26.8 5.4 20 13.4 NNE 15 30 8 16 1023.3 1022.6 0.0
21/12:30pm 30.0 26.1 5.4 21 13.0 NNE 15 28 8 15 1023.7 - 0.0
21/12:00pm 29.6 25.7 7.1 24 12.2 NE 17 28 9 15 1024.0 1023.4 0.0
21/11:30am 28.2 23.7 6.9 26 11.4 NE 20 28 11 15 1024.4 - 0.0
21/11:00am 26.8 22.4 7.4 29 10.4 NE 20 32 11 17 1024.8 - 0.0
21/10:30am 25.1 20.1 7.9 33 9.3 NNE 24 32 13 17 1025.1 - 0.0
21/10:00am 24.5 19.5 8.1 35 8.8 NE 24 35 13 19 1025.1 1024.4 0.0
21/09:30am 22.5 16.9 8.9 42 7.3 ENE 28 39 15 21 1025.0 - 0.0
21/09:00am 21.0 15.1 9.0 46 6.4 ENE 30 41 16 22 1025.0 1024.3 0.0
21/08:30am 19.9 14.4 9.2 50 5.7 ENE 28 39 15 21 1024.8 - 0.0
21/08:00am 18.6 13.1 9.1 54 5.0 ENE 28 37 15 20 1024.7 - 0.0
21/07:30am 17.8 13.1 9.3 57 4.5 E 24 33 13 18 1024.4 - 0.0
21/07:00am 17.2 13.2 9.2 59 4.2 E 20 30 11 16 1024.0 1023.4 0.0
21/06:30am 17.2 13.2 9.0 58 4.3 E 20 30 11 16 1023.6 - 0.0
21/06:00am 17.6 13.1 8.5 55 4.7 E 22 32 12 17 1023.2 1022.5 0.0
21/05:30am 18.1 13.5 8.3 52 5.1 E 22 32 12 17 1022.9 - 0.0
21/05:00am 18.7 14.4 7.8 49 5.6 E 20 28 11 15 1022.6 - 0.0
21/04:30am 19.2 14.9 7.8 47 5.9 E 20 30 11 16 1022.6 - 0.0
21/04:00am 19.7 15.4 7.7 45 6.2 E 20 30 11 16 1022.3 1021.6 0.0
21/03:30am 20.5 16.4 7.9 44 6.6 E 19 28 10 15 1022.3 - 0.0
21/03:00am 21.4 17.2 7.4 40 7.3 E 19 26 10 14 1022.3 1021.6 0.0
21/02:30am 21.7 17.5 5.9 35 8.0 ESE 17 20 9 11 1022.3 - 0.0
21/02:00am 21.9 18.4 3.3 29 9.0 ESE 11 15 6 8 1022.4 - 0.0
21/01:30am 22.8 18.6 1.5 24 10.0 ESE 13 19 7 10 1022.5 - 0.0
21/01:00am 24.5 18.7 -1.5 18 11.7 SE 19 28 10 15 1022.3 1021.6 0.0
21/12:30am 24.5 19.0 -1.9 17 11.8 NNE 17 19 9 10 1021.5 - 0.0
21/12:00am 25.3 20.2 -1.8 16 12.2 NNE 15 17 8 9 1021.7 1021.0 0.0
 
Date/Time
EDT
Temp
°C
App
Temp
°C
Dew
Point
Rel
Hum
%
Delta-T
°C
Wind Press
QNH
hPa
Press
MSL
hPa
Rain
since 9 am
mm
Dir
 
Spd
km/h
Gust
km/h
Spd
kts
Gust
kts
20/11:30pm 25.5 20.4 -1.7 16 12.3 NE 15 17 8 9 1021.8 - 0.0
20/11:00pm 25.2 20.5 -2.0 16 12.2 E 13 15 7 8 1021.9 - 0.0
20/10:30pm 26.2 21.4 -2.7 15 12.9 E 13 17 7 9 1022.0 - 0.0
20/10:00pm 26.6 21.8 -2.6 14 13.1 E 13 17 7 9 1021.9 1021.2 0.0
20/09:30pm 26.4 22.7 0.0 17 12.4 SE 9 13 5 7 1021.7 - 0.0
20/09:00pm 28.7 24.9 -0.8 14 13.9 SSE 9 9 5 5 1021.3 1020.6 0.0
20/08:30pm 29.8 26.5 -0.2 14 14.4 SE 7 7 4 4 1020.9 - 0.0
20/08:00pm 30.6 27.1 -1.3 12 15.1 SE 7 7 4 4 1020.4 - 0.0
20/07:30pm 31.7 28.2 -2.5 11 16.0 SSE 6 9 3 5 1020.2 - 0.0
20/07:00pm 32.4 28.6 -3.5 10 16.6 S 7 13 4 7 1020.1 1019.4 0.0
20/06:30pm 33.2 28.9 -4.8 8 17.3 S 9 11 5 6 1019.9 - 0.0
20/06:00pm 33.9 29.1 -6.0 7 17.9 S 11 19 6 10 1019.8 1019.1 0.0
20/05:30pm 33.5 28.9 -3.8 9 17.3 SSW 11 19 6 10 1019.8 - 0.0
20/05:00pm 34.1 30.3 -3.5 9 17.6 WNW 7 13 4 7 1019.9 - 0.0
20/04:30pm 34.3 30.5 -4.0 8 17.8 WNW 7 11 4 6 1020.1 - 0.0
20/04:00pm 34.1 29.8 -5.3 8 17.9 SE 9 19 5 10 1020.3 1019.7 0.0
20/03:30pm 34.1 29.4 -5.3 8 17.9 N 11 17 6 9 1020.7 - 0.0
20/03:00pm 33.9 30.1 -3.7 9 17.5 SSW 7 17 4 9 1021.2 1020.5 0.0
20/02:30pm 33.7 29.8 -1.2 10 17.0 E 9 19 5 10 1021.7 - 0.0
20/02:00pm 33.6 29.5 -3.0 9 17.2 E 9 17 5 9 1022.2 - 0.0
20/01:30pm 33.6 29.7 -1.5 10 17.0 E 9 13 5 7 1022.7 - 0.0
20/01:00pm 32.2 26.4 -4.3 9 16.6 ENE 17 24 9 13 1023.0 1022.3 0.0
20/12:30pm 32.5 27.9 -3.9 9 16.8 NE 11 19 6 10 1023.3 - 0.0
20/12:00pm 31.9 28.5 -0.6 12 15.7 SW 7 13 4 7 1024.0 1023.4 0.0
20/11:30am 32.1 27.9 -1.0 12 16.0 WSW 11 20 6 11 1024.1 - 0.0
20/11:00am 31.0 27.5 1.0 14 14.9 N 9 17 5 9 1024.6 - 0.0
20/10:30am 30.2 25.6 1.5 16 14.3 N 15 20 8 11 1024.8 - 0.0
20/10:00am 28.9 23.6 2.0 17 13.3 NNW 19 22 10 12 1024.9 1024.2 0.0
20/09:30am 27.3 22.9 2.7 20 12.2 N 15 22 8 12 1024.6 - 0.0
20/09:00am 25.5 21.4 2.2 22 11.3 N 13 19 7 10 1024.2 1023.6 0.0
20/08:30am 23.4 19.3 2.0 24 10.2 N 13 20 7 11 1024.0 - 0.0
20/08:00am 21.9 17.6 1.2 25 9.6 NNE 13 15 7 8 1023.7 - 0.0
20/07:30am 20.7 16.4 0.7 26 9.1 NNE 13 15 7 8 1023.4 - 0.0
20/07:00am 20.2 15.8 0.5 27 8.9 NNE 13 17 7 9 1023.0 1022.3 0.0
20/06:30am 19.6 14.8 0.1 27 8.7 NNE 15 17 8 9 1022.8 - 0.0
20/06:00am 18.9 14.5 0.2 28 8.3 NE 13 17 7 9 1022.6 1021.9 0.0
20/05:30am 19.2 14.7 0.0 27 8.5 NE 13 15 7 8 1022.2 - 0.0
20/05:00am 18.8 14.3 0.0 28 8.3 NE 13 15 7 8 1022.0 - 0.0
20/04:30am 19.1 14.6 -0.1 27 8.5 NE 13 15 7 8 1022.0 - 0.0
20/04:00am 19.8 15.3 -0.3 26 8.9 NNE 13 15 7 8 1021.9 1021.2 0.0
20/03:30am 20.4 15.9 -0.6 24 9.3 NNE 13 17 7 9 1021.8 - 0.0
20/03:00am 20.8 16.2 -1.0 23 9.6 NE 13 17 7 9 1022.0 1021.3 0.0
20/02:30am 21.3 16.3 -1.5 21 10.0 NE 15 17 8 9 1022.1 - 0.0
20/02:00am 21.8 16.8 -1.3 21 10.2 NE 15 17 8 9 1022.4 - 0.0
20/01:30am 22.0 17.0 -1.3 21 10.3 NE 15 19 8 10 1022.7 - 0.0
20/01:00am 21.4 16.8 -1.3 22 10.0 NE 13 17 7 9 1023.0 1022.3 0.0
20/12:30am 21.7 17.0 -1.9 20 10.3 NE 13 15 7 8 1023.1 - 0.0
20/12:00am 21.7 16.9 -2.4 20 10.4 ENE 13 17 7 9 1023.2 1022.5 0.0
 
Date/Time
EDT
Temp
°C
App
Temp
°C
Dew
Point
Rel
Hum
%
Delta-T
°C
Wind Press
QNH
hPa
Press
MSL
hPa
Rain
since 9 am
mm
Dir
 
Spd
km/h
Gust
km/h
Spd
kts
Gust
kts
19/11:30pm 22.2 17.4 -2.5 19 10.7 ENE 13 15 7 8 1023.2 - 0.0
19/11:00pm 22.5 18.2 -1.4 20 10.6 E 11 15 6 8 1023.2 - 0.0
19/10:30pm 22.9 18.1 -2.2 18 11.0 E 13 13 7 7 1023.1 - 0.0
19/10:00pm 24.3 20.0 -2.0 17 11.7 ENE 11 13 6 7 1022.8 1022.1 0.0
19/09:30pm 24.4 20.6 -0.5 19 11.4 E 9 11 5 6 1022.7 - 0.0
19/09:00pm 26.1 22.8 0.1 18 12.2 E 7 9 4 5 1022.4 1021.7 0.0
19/08:30pm 27.5 24.0 -1.7 14 13.5 ESE 7 7 4 4 1022.2 - 0.0
19/08:00pm 27.3 24.2 0.4 17 12.8 E 6 7 3 4 1021.8 - 0.0
19/07:30pm 28.2 26.2 4.5 22 12.2 NNE 4 6 2 3 1021.5 - 0.0
19/07:00pm 29.9 26.5 -2.3 12 14.9 NNW 6 9 3 5 1021.2 1020.5 0.0
19/06:30pm 31.0 27.7 -4.2 10 15.9 ENE 4 13 2 7 1020.9 - 0.0
19/06:00pm 31.1 26.6 -6.8 8 16.4 NNE 9 15 5 8 1020.8 1020.1 0.0
19/05:30pm 31.4 26.8 -7.7 7 16.7 SE 9 20 5 11 1020.6 - 0.0
19/05:00pm 31.5 27.1 -5.4 9 16.4 N 9 20 5 11 1020.7 - 0.0
19/04:30pm 31.3 26.0 -6.8 8 16.5 NNE 13 20 7 11 1020.9 - 0.0
19/04:00pm 30.9 26.1 -5.7 9 16.1 E 11 17 6 9 1021.1 1020.4 0.0
19/03:30pm 30.8 26.1 -5.4 9 16.0 E 11 24 6 13 1021.5 - 0.0
19/03:00pm 31.4 26.9 -6.4 8 16.5 NE 9 20 5 11 1021.8 1021.1 0.0
19/02:30pm 30.7 25.9 -5.8 9 16.0 N 11 20 6 11 1022.4 - 0.0
19/02:00pm 29.3 25.1 -4.1 11 15.0 SSW 9 13 5 7 1023.0 - 0.0
19/01:30pm 30.3 25.4 -7.3 8 16.1 NE 11 22 6 12 1023.4 - 0.0
19/01:00pm 29.7 25.3 -2.4 12 14.8 NE 11 26 6 14 1023.8 1023.2 0.0
19/12:30pm 28.3 23.3 -3.9 12 14.4 N 13 26 7 14 1024.1 - 0.0
19/12:00pm 29.1 25.0 -3.2 12 14.6 NNW 9 13 5 7 1024.4 1023.8 0.0
19/11:30am 28.0 22.7 -3.3 12 14.1 NNE 15 24 8 13 1024.9 - 0.0
19/11:00am 27.0 21.4 -3.1 13 13.5 NNE 17 22 9 12 1025.3 - 0.0
19/10:30am 26.1 20.2 -2.1 15 12.8 NNE 19 24 10 13 1026.0 - 0.0
19/10:00am 24.9 19.5 -1.5 17 11.9 NE 17 24 9 13 1026.0 1025.3 0.0
19/09:30am 23.3 18.0 -0.9 20 10.9 NE 17 22 9 12 1026.1 - 0.0
19/09:00am 22.5 17.2 -0.3 22 10.3 ENE 17 22 9 12 1026.1 1025.4 0.0
19/08:30am 21.0 15.8 -0.2 24 9.5 NE 17 22 9 12 1026.0 - 0.0
19/08:00am 18.8 13.1 -0.4 27 8.4 NE 19 26 10 14 1025.6 - 0.0
19/07:30am 17.7 12.8 -0.6 29 7.9 ENE 15 20 8 11 1025.2 - 0.0
19/07:00am 16.2 11.7 0.0 33 7.0 ENE 13 15 7 8 1024.6 1023.9 0.0
19/06:30am 16.6 11.7 -0.4 31 7.3 ENE 15 19 8 10 1024.0 - 0.0
19/06:00am 16.9 11.6 -0.6 30 7.5 ENE 17 22 9 12 1023.7 1023.1 0.0
19/05:30am 16.2 11.3 -0.8 31 7.2 ENE 15 19 8 10 1023.6 - 0.0
19/05:00am 16.0 11.0 -1.5 30 7.3 ENE 15 19 8 10 1023.7 - 0.0
19/04:30am 15.5 10.8 -1.7 30 7.1 E 13 17 7 9 1023.7 - 0.0
19/04:00am 15.4 10.3 -2.2 29 7.2 E 15 17 8 9 1023.6 1023.0 0.0
19/03:30am 15.6 10.9 -1.9 30 7.2 E 13 15 7 8 1023.8 - 0.0
19/03:00am 16.2 11.9 -1.9 29 7.5 E 11 15 6 8 1023.8 1023.2 0.0
19/02:30am 16.8 12.5 -1.9 28 7.8 E 11 15 6 8 1024.0 - 0.0
19/02:00am 17.7 12.9 -2.2 25 8.3 E 13 15 7 8 1024.0 - 0.0
19/01:30am 18.2 13.4 -2.8 24 8.7 ENE 13 15 7 8 1024.3 - 0.0
19/01:00am 18.7 13.8 -3.4 22 9.1 ENE 13 15 7 8 1024.6 1023.9 0.0
19/12:30am 19.4 14.5 -3.7 20 9.6 ENE 13 17 7 9 1024.7 - 0.0
19/12:00am 19.9 14.6 -3.9 20 9.8 ENE 15 19 8 10 1024.8 1024.1 0.0
 
Date/Time
EDT
Temp
°C
App
Temp
°C
Dew
Point
Rel
Hum
%
Delta-T
°C
Wind Press
QNH
hPa
Press
MSL
hPa
Rain
since 9 am
mm
Dir
 
Spd
km/h
Gust
km/h
Spd
kts
Gust
kts
18/11:30pm 19.6 14.3 -3.7 20 9.7 ENE 15 19 8 10 1024.8 - 0.0
18/11:00pm 18.7 13.9 -2.2 24 8.9 E 13 15 7 8 1024.9 - 0.0
18/10:30pm 19.2 14.4 -2.4 23 9.2 E 13 15 7 8 1024.8 - 0.0
18/10:00pm 19.8 15.0 -2.8 21 9.5 E 13 13 7 7 1024.8 1024.2 0.0
18/09:30pm 20.4 15.6 -2.7 21 9.8 E 13 13 7 7 1024.7 - 0.0
18/09:00pm 21.0 16.7 -1.8 21 9.9 E 11 13 6 7 1024.2 1023.6 0.0
18/08:30pm 22.1 17.5 -4.2 17 11.0 E 11 13 6 7 1023.8 - 0.0
18/08:00pm 23.1 18.9 -3.6 16 11.4 E 9 13 5 7 1023.5 - 0.0

Other Formats:

Comma delimited format used in spreadsheet applications
http://www.bom.gov.au/fwo/IDN60801/IDN60801.94711.axf

JavaScript Object Notation format (JSON) in row-major order
http://www.bom.gov.au/fwo/IDN60801/IDN60801.94711.json